Time;durP1;ratioP1;P1;durP2;ratioP2;P2;SDS_P1;SDS_P2;PMS_P1;PMS_P2;Temp;Humidity;BMP_temperature;BMP_pressure;BME280_temperature;BME280_humidity;BME280_pressure;Samples;Min_cycle;Max_cycle;Signal;HPM_P1;HPM_P2
2021/11/08 00:01:48;;;;;;;20.88;18.63;;;3.10;99.90;;;;;;4954812;28;20039;-75
2021/11/08 00:04:14;;;;;;;26.27;18.42;;;3.10;99.90;;;;;;4955028;28;20035;-74
2021/11/08 00:06:42;;;;;;;19.42;17.55;;;3.10;99.90;;;;;;4969897;28;20054;-74
2021/11/08 00:09:08;;;;;;;19.20;17.30;;;3.00;99.90;;;;;;4954521;29;20043;-74
2021/11/08 00:11:36;;;;;;;19.58;17.85;;;2.90;99.90;;;;;;4953558;28;20043;-74
2021/11/08 00:14:02;;;;;;;18.05;16.35;;;2.90;99.90;;;;;;4954967;28;20046;-74
2021/11/08 00:16:35;;;;;;;17.60;15.90;;;2.70;99.90;;;;;;4954613;28;20061;-74
2021/11/08 00:21:33;;;;;;;17.35;15.73;;;2.70;99.90;;;;;;4955113;28;20050;-74
2021/11/08 00:24:00;;;;;;;18.30;14.45;;;2.70;99.90;;;;;;4954438;28;20043;-73
2021/11/08 00:26:26;;;;;;;23.48;15.80;;;2.70;99.90;;;;;;4955105;28;20050;-73
2021/11/08 00:28:54;;;;;;;16.08;14.30;;;2.60;99.90;;;;;;4954081;28;20507;-74
2021/11/08 00:31:21;;;;;;;21.02;14.40;;;2.60;99.90;;;;;;4954872;28;20039;-74
2021/11/08 00:33:47;;;;;;;15.77;14.13;;;2.60;99.90;;;;;;4954272;28;20079;-74
2021/11/08 00:36:13;;;;;;;15.65;14.15;;;2.60;99.90;;;;;;4954597;28;20046;-74
2021/11/08 00:38:39;;;;;;;19.25;17.02;;;2.60;99.90;;;;;;4953624;28;20055;-75
2021/11/08 00:41:05;;;;;;;19.80;15.05;;;2.50;99.90;;;;;;4954152;28;20035;-74
2021/11/08 00:43:32;;;;;;;17.33;14.30;;;2.50;99.90;;;;;;4954354;28;20038;-74
2021/11/08 00:45:59;;;;;;;25.58;15.43;;;2.50;99.90;;;;;;4954195;28;20035;-74
2021/11/08 00:48:30;;;;;;;17.60;15.73;;;2.50;99.90;;;;;;4954555;28;20465;-74
2021/11/08 00:50:56;;;;;;;16.63;14.98;;;2.50;99.90;;;;;;4953673;28;20040;-74
2021/11/08 00:53:22;;;;;;;17.13;15.35;;;2.40;99.90;;;;;;4954010;28;20043;-74
2021/11/08 00:55:52;;;;;;;16.15;14.60;;;2.40;99.90;;;;;;4953900;28;20486;-74
2021/11/08 00:58:27;;;;;;;30.73;14.57;;;2.40;99.90;;;;;;4954440;28;20031;-74
2021/11/08 01:00:53;;;;;;;19.25;15.13;;;2.40;99.90;;;;;;4968474;28;20042;-74
2021/11/08 01:03:22;;;;;;;18.80;15.95;;;2.60;99.90;;;;;;4954513;28;20035;-74
2021/11/08 01:05:48;;;;;;;19.50;17.52;;;2.60;99.90;;;;;;4953498;28;20039;-74
2021/11/08 01:08:15;;;;;;;17.60;15.88;;;2.80;99.90;;;;;;4954266;28;20042;-74
2021/11/08 01:10:42;;;;;;;20.08;17.00;;;2.80;99.90;;;;;;4953854;28;20043;-73
2021/11/08 01:13:08;;;;;;;18.50;16.65;;;2.80;99.90;;;;;;4953226;28;20440;-74
2021/11/08 01:15:34;;;;;;;18.55;16.70;;;2.90;99.90;;;;;;4954356;28;20047;-77
2021/11/08 01:18:00;;;;;;;23.38;17.55;;;2.80;99.90;;;;;;4967883;28;20065;-73
2021/11/08 01:20:32;;;;;;;19.65;17.33;;;2.90;99.90;;;;;;4961926;28;20040;-75
2021/11/08 01:23:00;;;;;;;21.25;19.10;;;2.90;99.90;;;;;;4954091;28;20127;-74
2021/11/08 01:25:26;;;;;;;27.58;22.63;;;2.90;99.90;;;;;;4954244;28;20039;-74
2021/11/08 01:27:55;;;;;;;21.83;19.63;;;2.90;99.90;;;;;;4953611;28;20043;-74
2021/11/08 01:30:24;;;;;;;51.70;40.10;;;2.80;99.90;;;;;;4954020;28;20054;-74
2021/11/08 01:32:57;;;;;;;32.55;25.17;;;2.80;99.90;;;;;;4953572;28;20031;-74
2021/11/08 01:35:30;;;;;;;27.75;18.73;;;2.70;99.90;;;;;;4953662;28;20442;-74
2021/11/08 01:40:34;;;;;;;17.05;15.38;;;2.60;99.90;;;;;;4961616;28;20051;-75
2021/11/08 01:43:01;;;;;;;25.88;15.75;;;2.50;99.90;;;;;;4971220;28;20038;-73
2021/11/08 01:45:27;;;;;;;68.90;51.00;;;2.50;99.90;;;;;;4968616;28;20035;-73
2021/11/08 01:47:54;;;;;;;43.60;35.47;;;2.50;99.90;;;;;;4952946;28;20051;-73
2021/11/08 01:50:20;;;;;;;21.38;19.13;;;2.50;99.90;;;;;;4954097;28;20058;-73
2021/11/08 01:52:47;;;;;;;18.05;15.30;;;2.60;99.90;;;;;;4953685;28;20046;-74
2021/11/08 01:55:13;;;;;;;18.77;14.60;;;2.70;99.90;;;;;;4953578;28;20369;-73
2021/11/08 01:57:42;;;;;;;16.75;14.57;;;2.70;99.90;;;;;;4953612;28;20043;-73
2021/11/08 02:00:10;;;;;;;17.73;15.00;;;2.70;99.90;;;;;;4966862;28;20358;-73
2021/11/08 02:02:36;;;;;;;17.45;15.80;;;2.80;99.90;;;;;;4953496;28;20373;-73
2021/11/08 02:05:04;;;;;;;21.55;15.98;;;2.90;99.90;;;;;;4956081;28;20031;-74
2021/11/08 02:07:31;;;;;;;19.67;15.77;;;2.90;99.90;;;;;;4957233;28;20581;-74
2021/11/08 02:09:58;;;;;;;16.17;14.57;;;2.90;99.90;;;;;;4957057;28;20042;-74
2021/11/08 02:12:25;;;;;;;17.60;16.00;;;3.00;99.90;;;;;;4955417;28;20058;-73
2021/11/08 02:14:52;;;;;;;17.63;15.95;;;3.00;99.90;;;;;;4956839;28;20491;-74
2021/11/08 02:17:18;;;;;;;18.65;16.25;;;3.00;99.90;;;;;;4956856;28;20046;-73
2021/11/08 02:19:45;;;;;;;19.83;17.88;;;3.10;99.90;;;;;;4957205;28;20460;-73
2021/11/08 02:22:11;;;;;;;23.08;20.55;;;3.20;99.90;;;;;;4956916;28;20038;-73
2021/11/08 02:24:41;;;;;;;27.13;20.65;;;3.20;99.90;;;;;;4957209;28;20047;-73
2021/11/08 02:27:08;;;;;;;29.20;20.60;;;3.20;99.90;;;;;;4956374;28;20097;-73
2021/11/08 02:29:35;;;;;;;25.20;21.17;;;3.20;99.90;;;;;;4955593;28;20043;-73
2021/11/08 02:32:04;;;;;;;24.25;20.10;;;3.30;99.90;;;;;;4956287;28;20027;-74
2021/11/08 02:34:30;;;;;;;23.23;20.92;;;3.30;99.90;;;;;;4963192;28;20046;-73
2021/11/08 02:36:56;;;;;;;22.88;20.70;;;3.40;99.90;;;;;;4971358;28;20055;-73
2021/11/08 02:39:35;;;;;;;20.95;18.92;;;3.40;99.90;;;;;;4956583;28;20050;-74
2021/11/08 02:42:01;;;;;;;23.30;20.95;;;3.60;99.90;;;;;;4955928;28;20365;-73
2021/11/08 02:44:27;;;;;;;28.20;22.17;;;3.60;99.90;;;;;;4956596;28;20032;-74
2021/11/08 02:46:55;;;;;;;22.50;20.30;;;3.60;99.90;;;;;;4962209;28;20051;-73
2021/11/08 02:49:31;;;;;;;23.05;20.70;;;3.80;99.90;;;;;;4959165;28;20034;-75
2021/11/08 02:52:03;;;;;;;21.83;19.67;;;3.70;99.90;;;;;;4956321;28;20043;-72
2021/11/08 02:54:40;;;;;;;22.58;20.45;;;3.70;99.90;;;;;;4956392;28;20392;-75
2021/11/08 02:57:07;;;;;;;22.33;19.35;;;3.60;99.90;;;;;;4955872;28;20058;-73
2021/11/08 02:59:36;;;;;;;22.42;20.17;;;3.50;99.90;;;;;;4956485;28;20035;-74
2021/11/08 03:02:04;;;;;;;20.05;18.10;;;3.40;99.90;;;;;;4955707;28;20036;-73
2021/11/08 03:04:34;;;;;;;21.23;19.05;;;3.50;99.90;;;;;;4956308;28;20039;-73
2021/11/08 03:07:01;;;;;;;21.70;18.58;;;3.50;99.90;;;;;;4956237;28;20046;-73
2021/11/08 03:09:34;;;;;;;21.27;19.02;;;3.50;99.90;;;;;;4956090;28;20373;-73
2021/11/08 03:12:08;;;;;;;20.17;18.38;;;3.50;99.90;;;;;;4955747;28;20494;-74
2021/11/08 03:14:40;;;;;;;19.90;18.02;;;3.40;99.90;;;;;;4955058;28;20040;-73
2021/11/08 03:17:07;;;;;;;21.05;18.27;;;3.40;99.90;;;;;;4955307;29;20035;-73
2021/11/08 03:19:38;;;;;;;20.60;18.65;;;3.40;99.90;;;;;;4955760;28;20475;-73
2021/11/08 03:22:14;;;;;;;20.85;18.77;;;3.50;99.90;;;;;;4967689;28;20037;-73
2021/11/08 03:24:53;;;;;;;21.30;18.95;;;3.40;99.90;;;;;;4964350;28;20054;-73
2021/11/08 03:27:34;;;;;;;19.08;17.08;;;3.30;99.90;;;;;;4955973;28;20039;-73
2021/11/08 03:30:01;;;;;;;19.30;17.40;;;3.30;99.90;;;;;;4955791;28;20055;-74
2021/11/08 03:32:27;;;;;;;20.20;18.40;;;3.20;99.90;;;;;;4956001;28;20453;-73
2021/11/08 03:35:04;;;;;;;23.50;16.90;;;3.10;99.90;;;;;;4953270;28;20043;-73
2021/11/08 03:37:37;;;;;;;18.17;16.35;;;3.10;99.90;;;;;;4961758;28;20055;-73
2021/11/08 03:40:09;;;;;;;21.08;16.70;;;3.10;99.90;;;;;;4964607;28;20082;-74
2021/11/08 03:42:36;;;;;;;18.50;16.70;;;3.10;99.90;;;;;;4967472;28;20054;-74
2021/11/08 03:45:04;;;;;;;17.67;15.90;;;3.00;99.90;;;;;;4955150;28;20572;-74
2021/11/08 03:47:31;;;;;;;18.92;16.27;;;3.10;99.90;;;;;;4954994;28;20043;-74
2021/11/08 03:49:57;;;;;;;20.58;16.80;;;3.00;99.90;;;;;;4962826;28;20039;-74
2021/11/08 03:52:24;;;;;;;20.40;18.35;;;3.10;99.90;;;;;;4957054;28;20031;-73
2021/11/08 03:54:50;;;;;;;19.23;16.55;;;3.10;99.90;;;;;;4953352;28;20066;-76
2021/11/08 03:57:17;;;;;;;17.67;16.13;;;3.10;99.90;;;;;;4957378;28;20042;-74
2021/11/08 03:59:44;;;;;;;17.90;16.15;;;3.10;99.90;;;;;;4966523;28;20052;-74
2021/11/08 04:02:10;;;;;;;41.45;21.30;;;3.00;99.90;;;;;;4963622;28;20043;-74
2021/11/08 04:04:37;;;;;;;23.58;20.23;;;2.90;99.90;;;;;;4955272;28;20043;-77
2021/11/08 04:07:04;;;;;;;18.02;16.23;;;2.90;99.90;;;;;;4953539;28;20400;-73
2021/11/08 04:09:30;;;;;;;22.20;16.40;;;2.80;99.90;;;;;;4970344;28;20046;-73
2021/11/08 04:11:56;;;;;;;18.40;16.42;;;2.70;99.90;;;;;;4972756;28;20335;-73
2021/11/08 04:14:24;;;;;;;16.30;14.63;;;2.50;99.90;;;;;;4960162;28;20046;-73
2021/11/08 04:16:51;;;;;;;27.95;22.05;;;2.50;99.90;;;;;;4966879;28;20042;-74
2021/11/08 04:19:17;;;;;;;35.50;31.77;;;2.50;99.90;;;;;;4954759;29;20366;-73
2021/11/08 04:21:44;;;;;;;45.33;30.70;;;2.50;99.90;;;;;;4954456;28;20119;-73
2021/11/08 04:24:10;;;;;;;20.85;18.70;;;2.40;99.90;;;;;;4954484;28;20410;-73
2021/11/08 04:26:37;;;;;;;25.13;17.23;;;2.30;99.90;;;;;;4954278;28;20031;-74
2021/11/08 04:29:06;;;;;;;21.10;17.55;;;2.20;99.90;;;;;;4954352;28;20036;-73
2021/11/08 04:31:36;;;;;;;26.10;17.25;;;2.30;99.90;;;;;;4965819;28;20519;-73
2021/11/08 04:34:17;;;;;;;23.38;17.48;;;2.20;99.90;;;;;;4971151;28;20047;-73
2021/11/08 04:39:42;;;;;;;24.13;18.60;;;2.10;99.90;;;;;;4954892;28;20039;-73
2021/11/08 04:43:03;;;;;;;21.83;18.42;;;2.10;99.90;;;;;;4954243;28;20035;-73
2021/11/08 04:50:09;;;;;;;19.73;17.63;;;2.20;99.90;;;;;;4953937;28;20035;-74
2021/11/08 04:53:24;;;;;;;41.85;19.80;;;2.20;99.90;;;;;;4954415;28;20046;-74
2021/11/08 04:55:45;;;;;;;38.17;21.38;;;2.20;99.90;;;;;;4946504;28;20071;-74
2021/11/08 05:23:32;;;;;;;44.50;23.10;;;2.40;99.90;;;;;;4958492;28;20031;-73
2021/11/08 05:28:44;;;;;;;29.35;23.65;;;2.50;99.90;;;;;;4953843;28;20039;-74
2021/11/08 05:31:11;;;;;;;29.08;24.20;;;2.50;99.90;;;;;;4953136;28;20040;-74
2021/11/08 05:33:37;;;;;;;36.83;23.73;;;2.50;99.90;;;;;;4953745;28;20038;-74
2021/11/08 05:36:04;;;;;;;34.60;24.70;;;2.40;99.90;;;;;;4936250;28;20035;-74
2021/11/08 05:38:30;;;;;;;39.45;24.77;;;2.40;99.90;;;;;;4953913;28;20047;-74
2021/11/08 05:40:56;;;;;;;28.17;23.80;;;2.40;99.90;;;;;;4957608;28;20253;-74
2021/11/08 05:43:22;;;;;;;27.75;23.35;;;2.40;99.90;;;;;;4957610;28;20035;-74
2021/11/08 05:45:49;;;;;;;29.45;24.20;;;2.40;99.90;;;;;;4957490;28;20034;-74
2021/11/08 05:48:15;;;;;;;29.45;23.10;;;2.30;99.90;;;;;;4957031;28;20050;-75
2021/11/08 05:50:43;;;;;;;26.38;22.25;;;2.30;99.90;;;;;;4956703;28;20481;-75
2021/11/08 05:53:09;;;;;;;26.83;22.98;;;2.30;99.90;;;;;;4974483;28;20027;-74
2021/11/08 05:55:42;;;;;;;29.83;22.17;;;2.20;99.90;;;;;;4956949;28;20039;-73
2021/11/08 06:50:16;;;;;;;126.38;45.42;;;2.80;99.90;;;;;;4955468;28;20038;-74
2021/11/08 06:52:47;;;;;;;60.35;43.33;;;2.80;99.90;;;;;;4958034;28;20035;-74
2021/11/08 06:55:13;;;;;;;135.95;43.90;;;2.90;99.90;;;;;;4955809;28;20046;-74
2021/11/08 06:57:46;;;;;;;108.07;41.17;;;2.90;99.90;;;;;;4956318;28;20130;-74
2021/11/08 07:00:15;;;;;;;106.07;44.95;;;3.00;99.90;;;;;;4955841;28;20046;-74
2021/11/08 07:02:42;;;;;;;120.82;54.53;;;3.10;99.90;;;;;;4956614;28;20035;-73
2021/11/08 07:05:08;;;;;;;91.88;51.55;;;3.30;99.90;;;;;;4965658;28;20480;-73
2021/11/08 07:07:34;;;;;;;93.63;51.63;;;3.30;99.90;;;;;;4956285;28;20039;-73
2021/11/08 07:10:01;;;;;;;74.22;49.00;;;3.40;99.90;;;;;;4956181;28;20035;-74
2021/11/08 07:12:27;;;;;;;77.68;43.10;;;3.40;99.90;;;;;;4956090;28;20046;-74
2021/11/08 07:14:53;;;;;;;65.07;35.60;;;3.50;99.90;;;;;;4956005;29;20042;-74
2021/11/08 07:17:19;;;;;;;45.05;31.58;;;3.50;99.90;;;;;;4955149;28;20585;-73
2021/11/08 07:19:46;;;;;;;42.00;28.73;;;3.60;99.90;;;;;;4955823;28;20042;-73
2021/11/08 07:22:12;;;;;;;38.72;29.02;;;3.60;99.90;;;;;;4955570;28;20034;-74
2021/11/08 07:24:38;;;;;;;42.58;28.45;;;3.70;99.90;;;;;;4956125;28;20043;-73
2021/11/08 07:27:04;;;;;;;60.35;32.83;;;3.80;99.90;;;;;;4954611;28;20047;-73
2021/11/08 07:29:35;;;;;;;39.92;30.10;;;3.80;99.90;;;;;;4963746;28;20034;-73
2021/11/08 07:32:02;;;;;;;35.78;27.98;;;3.80;99.90;;;;;;4966538;28;20034;-73
2021/11/08 07:34:28;;;;;;;33.95;26.65;;;3.90;99.90;;;;;;4959527;28;20042;-73
2021/11/08 07:36:54;;;;;;;34.10;26.92;;;3.90;99.90;;;;;;4964449;28;20035;-73
2021/11/08 07:39:21;;;;;;;35.53;29.25;;;4.00;99.90;;;;;;4966545;28;20381;-73
2021/11/08 07:41:48;;;;;;;48.30;31.45;;;4.00;99.90;;;;;;4955797;28;20027;-73
2021/11/08 07:44:16;;;;;;;52.42;33.03;;;4.10;99.90;;;;;;4955169;28;20283;-73
2021/11/08 07:46:43;;;;;;;44.45;31.10;;;4.10;99.90;;;;;;4955243;28;20031;-73
2021/11/08 07:49:09;;;;;;;39.13;31.13;;;4.20;99.90;;;;;;4969530;28;20494;-73
2021/11/08 07:51:35;;;;;;;40.90;29.00;;;4.30;99.90;;;;;;4969979;28;20055;-73
2021/11/08 07:54:02;;;;;;;43.78;28.95;;;4.30;99.90;;;;;;4955063;28;20050;-74
2021/11/08 07:56:29;;;;;;;43.00;32.17;;;4.40;99.90;;;;;;4955943;28;20031;-73
2021/11/08 07:58:55;;;;;;;49.97;32.97;;;4.50;99.90;;;;;;4955019;28;20039;-77
2021/11/08 08:01:22;;;;;;;36.40;29.52;;;4.60;99.90;;;;;;4954689;28;20499;-73
2021/11/08 08:03:48;;;;;;;34.30;30.73;;;4.60;99.90;;;;;;4955379;28;20058;-72
2021/11/08 08:06:16;;;;;;;38.30;30.33;;;4.80;99.90;;;;;;4954823;28;20035;-73
2021/11/08 08:08:46;;;;;;;39.53;33.80;;;4.80;99.90;;;;;;4960527;28;20035;-73
2021/11/08 08:11:13;;;;;;;41.90;32.15;;;4.90;99.90;;;;;;4964095;28;20035;-72
2021/11/08 08:13:39;;;;;;;43.20;32.30;;;5.00;99.90;;;;;;4954832;28;20032;-73
2021/11/08 08:16:08;;;;;;;39.50;31.15;;;5.00;99.90;;;;;;4954801;28;20035;-73
2021/11/08 08:18:39;;;;;;;36.38;27.25;;;4.90;99.90;;;;;;4963452;28;20040;-73
2021/11/08 08:21:07;;;;;;;28.35;25.35;;;4.90;99.90;;;;;;4955637;28;20039;-74
2021/11/08 08:23:34;;;;;;;44.80;27.48;;;4.90;99.90;;;;;;4963784;28;20039;-74
2021/11/08 08:26:01;;;;;;;36.22;25.42;;;5.00;99.90;;;;;;4954277;28;20043;-74
2021/11/08 08:28:27;;;;;;;29.05;25.13;;;5.00;99.90;;;;;;4964192;28;20034;-75
2021/11/08 08:30:54;;;;;;;29.85;25.85;;;5.00;99.90;;;;;;4955040;28;20465;-74
2021/11/08 08:33:20;;;;;;;32.95;27.17;;;5.10;99.90;;;;;;4954222;28;20027;-75
2021/11/08 08:35:46;;;;;;;27.15;24.27;;;5.30;99.90;;;;;;4957472;28;20053;-74
2021/11/08 08:38:17;;;;;;;27.88;25.02;;;5.30;99.90;;;;;;4972635;28;20046;-75
2021/11/08 08:40:46;;;;;;;32.58;26.13;;;5.30;99.90;;;;;;4964207;28;20031;-74
2021/11/08 08:43:16;;;;;;;30.95;24.05;;;5.50;99.90;;;;;;4965988;28;20031;-74
2021/11/08 08:45:42;;;;;;;29.80;24.65;;;5.50;99.90;;;;;;4963135;28;20395;-74
2021/11/08 08:48:12;;;;;;;26.67;23.92;;;5.60;99.90;;;;;;4955502;28;20054;-74
2021/11/08 08:50:40;;;;;;;28.75;22.63;;;5.60;99.90;;;;;;4954532;28;20365;-75
2021/11/08 08:53:08;;;;;;;26.27;23.60;;;5.60;99.90;;;;;;4954440;28;20064;-74
2021/11/08 08:55:39;;;;;;;27.88;24.95;;;5.60;99.90;;;;;;4954730;28;20031;-74
2021/11/08 08:58:07;;;;;;;27.92;24.92;;;5.60;99.90;;;;;;4956712;28;20034;-74
2021/11/08 09:00:35;;;;;;;28.27;24.40;;;5.60;99.90;;;;;;4971847;28;20038;-75
2021/11/08 09:03:20;;;;;;;26.77;24.10;;;5.70;99.90;;;;;;4953974;29;20042;-74
2021/11/08 09:05:47;;;;;;;28.08;25.30;;;5.90;99.90;;;;;;4954919;28;20031;-74
2021/11/08 09:08:14;;;;;;;27.67;23.83;;;6.00;99.90;;;;;;4954154;28;20031;-75
2021/11/08 09:10:44;;;;;;;24.48;22.10;;;6.00;99.90;;;;;;4954551;28;20042;-75
2021/11/08 09:13:11;;;;;;;23.98;21.42;;;5.90;99.90;;;;;;4953509;28;20055;-75
2021/11/08 09:15:38;;;;;;;25.50;22.90;;;5.90;99.90;;;;;;4966673;28;20043;-75
2021/11/08 09:18:05;;;;;;;35.80;24.48;;;6.00;99.90;;;;;;4964965;28;20050;-75
2021/11/08 09:20:32;;;;;;;25.27;22.35;;;6.00;99.90;;;;;;4964922;28;20042;-74
2021/11/08 09:22:59;;;;;;;25.95;23.00;;;6.10;99.90;;;;;;4954760;28;20035;-76
2021/11/08 09:25:26;;;;;;;29.88;23.45;;;6.10;99.90;;;;;;4954770;28;20031;-75
2021/11/08 09:27:55;;;;;;;25.30;20.40;;;6.10;99.90;;;;;;4954201;29;20050;-75
2021/11/08 09:30:24;;;;;;;24.55;21.90;;;6.10;99.90;;;;;;4953979;28;20031;-75
2021/11/08 09:32:51;;;;;;;23.40;20.85;;;6.20;99.90;;;;;;4970202;28;20042;-75
2021/11/08 09:35:22;;;;;;;24.67;20.35;;;6.30;99.90;;;;;;4960883;28;20050;-75
2021/11/08 09:37:49;;;;;;;28.13;18.20;;;6.40;99.90;;;;;;4954019;28;20042;-75
2021/11/08 09:40:23;;;;;;;18.67;16.70;;;6.40;99.90;;;;;;4960524;28;20039;-75
2021/11/08 09:42:54;;;;;;;16.90;15.10;;;6.50;99.90;;;;;;4953773;28;20189;-75
2021/11/08 09:45:22;;;;;;;18.23;15.02;;;6.50;99.90;;;;;;4959217;28;20050;-76
2021/11/08 09:47:52;;;;;;;19.40;13.68;;;6.60;99.90;;;;;;4954804;28;20384;-74
2021/11/08 09:50:23;;;;;;;14.35;13.02;;;6.80;99.90;;;;;;4953582;28;20070;-75
2021/11/08 09:52:51;;;;;;;16.73;14.18;;;6.90;99.90;;;;;;4954441;29;20031;-75
2021/11/08 09:55:23;;;;;;;13.88;12.35;;;7.00;99.90;;;;;;4953368;28;20059;-75
2021/11/08 09:57:54;;;;;;;12.10;10.80;;;6.90;99.90;;;;;;4953856;28;20047;-75
2021/11/08 10:00:41;;;;;;;14.80;11.88;;;7.00;99.90;;;;;;4953818;28;20039;-75
2021/11/08 10:03:16;;;;;;;13.95;11.50;;;7.10;99.90;;;;;;4953425;28;20042;-76
2021/11/08 10:05:45;;;;;;;17.88;11.20;;;7.30;99.90;;;;;;4954152;28;20038;-75
2021/11/08 10:08:13;;;;;;;13.27;11.40;;;7.30;99.90;;;;;;4953409;28;20031;-75
2021/11/08 10:10:40;;;;;;;14.63;11.63;;;7.30;99.90;;;;;;4953920;28;20504;-75
2021/11/08 10:13:15;;;;;;;14.52;11.38;;;7.30;99.90;;;;;;4952860;28;20374;-75
2021/11/08 10:15:48;;;;;;;12.25;9.63;;;7.40;99.90;;;;;;4953898;28;20043;-75
2021/11/08 10:18:17;;;;;;;12.98;10.02;;;7.40;99.90;;;;;;4953059;28;20058;-78
2021/11/08 10:20:48;;;;;;;11.52;10.07;;;7.60;99.90;;;;;;4953858;28;20031;-75
2021/11/08 10:23:17;;;;;;;12.48;9.50;;;7.60;99.90;;;;;;4951694;28;20054;-74
2021/11/08 10:25:45;;;;;;;12.18;9.35;;;7.60;99.90;;;;;;4956003;28;20389;-74
2021/11/08 10:28:27;;;;;;;15.95;9.68;;;7.80;99.90;;;;;;4966497;28;20042;-75
2021/11/08 10:31:09;;;;;;;10.63;8.80;;;7.90;99.90;;;;;;4965437;28;20034;-75
2021/11/08 10:33:36;;;;;;;15.82;9.18;;;7.90;99.90;;;;;;4967404;28;20392;-75
2021/11/08 10:36:11;;;;;;;18.35;9.70;;;8.10;99.90;;;;;;4961856;28;20027;-75
2021/11/08 10:38:40;;;;;;;10.50;9.32;;;8.20;99.90;;;;;;4956562;28;20043;-75
2021/11/08 10:41:16;;;;;;;15.55;9.88;;;8.20;99.90;;;;;;4956172;28;20026;-73
2021/11/08 10:43:53;;;;;;;10.02;9.02;;;8.40;99.90;;;;;;4958875;28;20469;-73
2021/11/08 10:46:26;;;;;;;13.07;9.93;;;8.50;99.90;;;;;;4963874;28;20572;-73
2021/11/08 10:48:59;;;;;;;12.20;9.50;;;8.60;99.90;;;;;;4970549;28;20070;-73
2021/11/08 10:51:28;;;;;;;15.55;11.50;;;8.70;99.90;;;;;;4956082;28;20034;-73
2021/11/08 10:54:02;;;;;;;14.30;10.80;;;8.80;99.90;;;;;;4958739;28;20046;-74
2021/11/08 10:56:38;;;;;;;12.15;9.48;;;8.80;99.90;;;;;;4965204;28;20035;-73
2021/11/08 10:59:32;;;;;;;14.95;9.60;;;8.90;99.90;;;;;;4966691;28;20369;-74
2021/11/08 11:02:03;;;;;;;16.98;10.02;;;8.90;99.90;;;;;;4955079;28;20043;-78
2021/11/08 11:04:43;;;;;;;13.50;10.00;;;9.00;99.90;;;;;;4955564;28;20052;-73
2021/11/08 11:07:17;;;;;;;10.20;9.13;;;9.30;99.90;;;;;;4955306;28;20039;-73
2021/11/08 11:09:44;;;;;;;14.93;10.63;;;9.50;99.10;;;;;;4955896;28;20049;-73
2021/11/08 11:12:11;;;;;;;13.45;10.32;;;9.60;98.10;;;;;;4955073;28;20049;-74
2021/11/08 11:14:39;;;;;;;19.13;11.43;;;9.50;97.00;;;;;;4955901;28;20038;-73
2021/11/08 11:17:12;;;;;;;13.40;10.07;;;9.40;97.80;;;;;;4955393;28;20043;-74
2021/11/08 11:19:38;;;;;;;13.25;10.70;;;9.60;99.10;;;;;;4956076;28;20039;-73
2021/11/08 11:22:08;;;;;;;13.35;10.55;;;9.80;98.60;;;;;;4955313;28;20058;-76
2021/11/08 11:24:48;;;;;;;12.90;10.35;;;10.00;96.50;;;;;;4955751;28;20035;-74
2021/11/08 11:27:37;;;;;;;12.75;11.07;;;10.00;97.50;;;;;;4955478;28;20039;-75
2021/11/08 11:30:18;;;;;;;25.65;11.75;;;10.30;95.80;;;;;;4961205;28;20035;-72
2021/11/08 11:33:05;;;;;;;10.80;7.15;;;10.30;94.80;;;;;;4959583;28;20031;-73
2021/11/08 11:35:44;;;;;;;15.13;10.82;;;10.30;95.20;;;;;;4971658;28;20050;-72
2021/11/08 11:38:16;;;;;;;13.25;10.15;;;10.50;94.10;;;;;;4973133;28;20468;-72
2021/11/08 11:40:46;;;;;;;21.70;12.50;;;10.60;93.50;;;;;;4972612;28;20047;-72
2021/11/08 11:43:17;;;;;;;12.93;9.60;;;10.80;93.50;;;;;;4973397;28;20027;-73
2021/11/08 11:45:49;;;;;;;15.55;10.98;;;10.50;92.60;;;;;;4965126;28;20036;-72
2021/11/08 11:48:25;;;;;;;12.48;11.13;;;10.40;92.80;;;;;;4954307;28;20039;-73
2021/11/08 11:50:52;;;;;;;22.77;13.88;;;10.40;92.90;;;;;;4955479;28;20554;-72
2021/11/08 11:53:18;;;;;;;17.38;12.75;;;10.60;92.30;;;;;;4954519;28;20028;-72
2021/11/08 11:55:46;;;;;;;14.18;11.73;;;10.90;91.50;;;;;;4964889;28;20030;-73
2021/11/08 11:58:14;;;;;;;15.38;11.05;;;11.00;90.50;;;;;;4972694;28;20460;-73
2021/11/08 12:00:42;;;;;;;14.65;12.40;;;11.20;90.20;;;;;;4973566;28;20035;-72
2021/11/08 12:03:08;;;;;;;20.67;12.68;;;11.30;89.50;;;;;;4971854;28;20027;-73
2021/11/08 12:05:35;;;;;;;20.58;14.18;;;11.40;88.10;;;;;;4971863;28;20034;-73
2021/11/08 12:08:06;;;;;;;14.38;12.88;;;11.50;86.30;;;;;;4970761;28;20038;-81
2021/11/08 12:10:33;;;;;;;18.50;11.75;;;11.00;86.00;;;;;;4963892;28;20484;-73
2021/11/08 12:12:59;;;;;;;18.48;13.40;;;10.90;86.40;;;;;;4954348;28;20048;-73
2021/11/08 12:15:32;;;;;;;17.92;13.40;;;11.00;86.70;;;;;;4954118;28;20031;-73
2021/11/08 12:18:12;;;;;;;21.73;12.98;;;11.00;86.70;;;;;;4953096;28;20031;-73
2021/11/08 12:20:51;;;;;;;14.07;12.65;;;11.10;86.20;;;;;;4954975;28;20051;-73
2021/11/08 12:23:24;;;;;;;14.50;11.13;;;11.30;85.70;;;;;;4954487;28;20040;-73
2021/11/08 12:25:52;;;;;;;16.77;11.38;;;11.30;83.20;;;;;;4955087;28;20047;-73
2021/11/08 12:28:27;;;;;;;15.98;12.20;;;11.30;84.30;;;;;;4953968;28;20027;-72
2021/11/08 12:31:04;;;;;;;15.40;10.93;;;11.50;82.70;;;;;;4954839;28;20429;-72
2021/11/08 12:33:37;;;;;;;23.83;11.43;;;11.50;82.80;;;;;;4954325;28;20043;-74
2021/11/08 12:36:06;;;;;;;13.75;10.88;;;11.30;82.50;;;;;;4954227;28;20032;-73
2021/11/08 12:38:35;;;;;;;12.52;10.60;;;11.40;81.10;;;;;;4954567;28;20039;-72
2021/11/08 12:41:07;;;;;;;16.85;11.68;;;11.30;80.60;;;;;;4953872;29;20031;-80
2021/11/08 12:43:33;;;;;;;18.30;13.15;;;11.30;80.70;;;;;;4954304;28;20027;-72
2021/11/08 12:46:21;;;;;;;24.05;13.32;;;11.50;80.60;;;;;;4954328;28;20047;-71
2021/11/08 12:48:49;;;;;;;18.70;13.32;;;11.50;82.30;;;;;;4954050;28;20034;-73
2021/11/08 12:51:17;;;;;;;19.95;13.68;;;11.50;80.20;;;;;;4953514;28;20362;-72
2021/11/08 12:53:46;;;;;;;16.25;12.98;;;11.50;81.10;;;;;;4951477;28;20043;-81
2021/11/08 12:56:34;;;;;;;20.70;14.63;;;11.60;81.30;;;;;;4969186;28;20380;-73
2021/11/08 12:59:14;;;;;;;17.60;15.32;;;11.70;81.40;;;;;;4970459;28;20042;-77
2021/11/08 13:01:50;;;;;;;18.60;15.50;;;11.80;80.80;;;;;;4978698;28;20045;-72
2021/11/08 13:04:18;;;;;;;18.70;14.82;;;11.80;80.20;;;;;;4958106;28;20050;-73
2021/11/08 13:06:46;;;;;;;26.17;17.55;;;11.70;81.00;;;;;;4958597;28;20023;-73
2021/11/08 13:09:24;;;;;;;20.83;18.08;;;11.60;81.40;;;;;;4962488;28;20046;-74
2021/11/08 13:11:53;;;;;;;26.35;18.83;;;11.10;82.60;;;;;;4953734;28;20499;-73
2021/11/08 13:14:34;;;;;;;27.23;18.00;;;10.90;84.10;;;;;;4953148;28;20365;-73
2021/11/08 13:17:11;;;;;;;;;;;10.70;84.30;;;;;;4963666;28;20027;-73
2021/11/08 13:19:48;;;;;;;21.58;17.85;;;10.50;85.40;;;;;;4953414;28;19921;-73
2021/11/08 13:22:31;;;;;;;28.88;17.58;;;10.40;84.50;;;;;;4961141;28;20038;-75
2021/11/08 13:25:10;;;;;;;21.42;17.77;;;10.40;85.90;;;;;;4976458;28;20031;-73
2021/11/08 13:27:37;;;;;;;27.05;17.52;;;10.40;84.90;;;;;;4960311;28;20031;-72
2021/11/08 13:30:08;;;;;;;22.15;15.30;;;10.40;85.00;;;;;;4952908;28;20031;-77
2021/11/08 13:32:36;;;;;;;18.02;16.05;;;10.50;84.50;;;;;;4953415;28;20042;-72
2021/11/08 13:35:08;;;;;;;19.58;17.45;;;10.80;84.60;;;;;;4953237;28;20046;-76
2021/11/08 13:37:39;;;;;;;24.38;16.15;;;10.90;82.40;;;;;;4951932;28;20046;-73
2021/11/08 13:40:20;;;;;;;21.92;17.73;;;10.90;83.60;;;;;;4953311;28;20050;-74
2021/11/08 13:43:04;;;;;;;20.88;17.02;;;10.90;83.30;;;;;;4953367;28;20031;-75
2021/11/08 13:45:30;;;;;;;31.50;15.57;;;11.00;84.30;;;;;;4953621;28;20034;-73
2021/11/08 13:47:59;;;;;;;20.13;16.10;;;11.10;83.90;;;;;;4952048;28;20401;-74
2021/11/08 13:50:26;;;;;;;19.98;14.73;;;11.10;83.10;;;;;;4952699;28;20035;-73
2021/11/08 13:52:56;;;;;;;23.27;17.40;;;11.10;82.10;;;;;;4953225;28;20038;-72
2021/11/08 13:55:24;;;;;;;29.60;19.95;;;10.80;82.40;;;;;;4962165;28;20027;-73
2021/11/08 13:57:50;;;;;;;24.77;18.80;;;10.90;82.80;;;;;;4953272;28;20150;-73
2021/11/08 14:00:19;;;;;;;26.92;18.83;;;10.90;83.60;;;;;;4954308;28;20039;-73
2021/11/08 14:02:45;;;;;;;19.25;17.30;;;10.90;82.30;;;;;;4957384;28;20031;-73
2021/11/08 14:05:12;;;;;;;24.63;19.80;;;10.80;83.20;;;;;;4956406;28;20050;-73
2021/11/08 14:07:41;;;;;;;29.15;18.88;;;10.80;82.90;;;;;;4971618;28;20050;-74
2021/11/08 14:10:13;;;;;;;20.45;18.42;;;10.90;82.90;;;;;;4956526;28;20096;-76
2021/11/08 14:12:40;;;;;;;19.83;17.63;;;10.90;81.40;;;;;;4956837;28;20048;-76
2021/11/08 14:15:08;;;;;;;25.75;19.02;;;10.80;82.30;;;;;;4957491;28;20039;-74
2021/11/08 14:17:39;;;;;;;21.75;18.60;;;10.90;82.00;;;;;;4965166;28;20492;-74
2021/11/08 14:20:08;;;;;;;;;;;10.90;81.70;;;;;;4956677;28;20047;-74
2021/11/08 14:22:39;;;;;;;21.55;16.88;;;10.80;82.00;;;;;;4956696;28;19920;-74